createdAt,value
2023-05-21T00:01:37.166Z,0.40
2023-05-21T00:04:06.294Z,0.40
2023-05-21T00:06:36.279Z,0.30
2023-05-21T00:09:04.520Z,0.52
2023-05-21T00:11:32.367Z,0.40
2023-05-21T00:13:59.435Z,0.60
2023-05-21T00:16:26.634Z,0.30
2023-05-21T00:18:54.715Z,0.30
2023-05-21T00:21:26.068Z,0.30
2023-05-21T00:23:56.640Z,0.30
2023-05-21T00:26:24.237Z,0.30
2023-05-21T00:28:51.105Z,0.57
2023-05-21T00:31:19.160Z,1.00
2023-05-21T00:33:46.065Z,0.30
2023-05-21T00:36:14.402Z,0.22
2023-05-21T00:38:45.743Z,0.20
2023-05-21T00:41:13.219Z,0.20
2023-05-21T00:43:42.048Z,0.20
2023-05-21T00:46:18.063Z,0.20
2023-05-21T00:48:46.351Z,0.20
2023-05-21T00:51:18.578Z,0.30
2023-05-21T00:53:46.690Z,0.50
2023-05-21T00:56:13.815Z,0.25
2023-05-21T00:58:41.521Z,0.30
2023-05-21T01:01:13.851Z,0.32
2023-05-21T05:28:25.590Z,0.30
2023-05-21T05:30:53.458Z,0.20
2023-05-21T05:33:20.460Z,0.28
2023-05-21T05:35:47.422Z,0.20
2023-05-21T05:38:14.474Z,0.20
2023-05-21T05:40:41.281Z,0.30
2023-05-21T05:43:08.146Z,0.20
2023-05-21T05:45:35.128Z,0.30
2023-05-21T05:48:02.331Z,0.20
2023-05-21T05:50:29.426Z,0.10
2023-05-21T05:52:56.266Z,0.20
2023-05-21T05:55:25.145Z,0.20
2023-05-21T05:57:52.016Z,0.30
2023-05-21T06:00:19.884Z,0.30
2023-05-21T06:02:48.223Z,0.15
2023-05-21T06:05:15.513Z,0.40
2023-05-21T06:07:42.672Z,0.20
2023-05-21T06:10:09.896Z,0.20
2023-05-21T06:12:36.944Z,0.20
2023-05-21T06:15:04.404Z,0.20
2023-05-21T06:17:31.805Z,0.20
2023-05-21T06:19:58.755Z,0.30
2023-05-21T06:22:25.755Z,0.30
2023-05-21T06:24:52.846Z,0.30
2023-05-21T06:27:19.807Z,0.20
2023-05-21T06:29:46.662Z,0.20
2023-05-21T06:32:13.701Z,0.10
2023-05-21T06:34:41.045Z,0.10
2023-05-21T06:37:07.936Z,0.20
2023-05-21T06:39:34.889Z,0.20
2023-05-21T06:42:01.824Z,0.20
2023-05-21T06:44:28.658Z,0.20
2023-05-21T06:46:55.508Z,0.20
2023-05-21T06:49:22.463Z,0.20
2023-05-21T06:51:49.324Z,0.30
2023-05-21T06:54:16.276Z,0.40
2023-05-21T06:56:43.125Z,0.20
2023-05-21T06:59:10.855Z,0.30
2023-05-21T07:01:37.768Z,0.40
2023-05-21T07:04:04.863Z,0.20
2023-05-21T07:06:32.127Z,0.30
2023-05-21T07:08:58.906Z,0.30
2023-05-21T07:11:28.850Z,0.20
2023-05-21T07:13:58.939Z,0.40
2023-05-21T07:16:25.775Z,0.20
2023-05-21T07:18:52.637Z,0.30
2023-05-21T07:21:19.515Z,0.20
2023-05-21T07:23:46.470Z,0.40
2023-05-21T07:26:13.419Z,0.22
2023-05-21T07:28:40.382Z,0.30
2023-05-21T07:31:08.430Z,0.40
2023-05-21T07:33:35.919Z,0.30
2023-05-21T07:36:02.741Z,0.30
2023-05-21T07:38:29.572Z,0.30
2023-05-21T07:40:57.400Z,0.40
2023-05-21T07:43:24.316Z,0.30
2023-05-21T07:45:51.507Z,0.30
2023-05-21T07:48:19.038Z,0.20
2023-05-21T07:50:49.325Z,0.20
2023-05-21T07:53:16.319Z,0.30
2023-05-21T07:55:47.776Z,0.28
2023-05-21T07:58:16.805Z,0.30
2023-05-21T08:00:47.589Z,0.30
2023-05-21T08:03:18.416Z,0.30
2023-05-21T08:05:49.025Z,0.30
2023-05-21T08:08:19.950Z,0.38
2023-05-21T08:10:47.842Z,0.40
2023-05-21T08:13:16.502Z,0.40
2023-05-21T08:15:43.957Z,0.40
2023-05-21T08:18:12.003Z,0.30
2023-05-21T08:20:39.019Z,0.40
2023-05-21T08:23:06.113Z,0.30
2023-05-21T08:25:33.315Z,0.30
2023-05-21T08:28:00.446Z,0.40
2023-05-21T08:30:27.443Z,0.40
2023-05-21T08:32:55.249Z,0.85
2023-05-21T08:35:22.648Z,0.67
2023-05-21T08:37:49.494Z,0.70
2023-05-21T08:40:16.642Z,0.40
2023-05-21T08:42:46.445Z,0.30
2023-05-21T08:45:15.145Z,0.40
2023-05-21T08:47:46.825Z,0.50
2023-05-21T08:50:16.333Z,0.50
2023-05-21T08:52:43.308Z,0.43
2023-05-21T08:55:10.777Z,0.63
2023-05-21T08:57:38.155Z,0.50
2023-05-21T09:00:06.412Z,0.40
2023-05-21T09:02:34.787Z,0.40
2023-05-21T09:05:03.425Z,0.50
2023-05-21T09:07:34.232Z,0.52
2023-05-21T09:10:10.739Z,0.50
2023-05-21T09:12:37.648Z,0.40
2023-05-21T09:15:05.324Z,0.40
2023-05-21T09:17:32.572Z,0.32
2023-05-21T09:20:16.525Z,0.40
2023-05-21T09:22:48.411Z,0.40
2023-05-21T09:25:29.400Z,0.40
2023-05-21T09:27:57.002Z,0.52
2023-05-21T09:30:26.778Z,0.40
2023-05-21T09:33:00.255Z,0.40
2023-05-21T09:35:27.512Z,0.40
2023-05-21T09:37:54.544Z,0.70
2023-05-21T09:40:23.407Z,0.50
2023-05-21T09:42:52.345Z,0.50
2023-05-21T09:45:24.039Z,0.40
2023-05-21T09:47:53.064Z,0.50
2023-05-21T09:50:24.720Z,0.40
2023-05-21T09:52:55.497Z,0.47
2023-05-21T09:55:24.381Z,0.50
2023-05-21T09:57:52.646Z,0.60
2023-05-21T10:00:28.169Z,0.40
2023-05-21T10:02:56.508Z,0.40
2023-05-21T10:05:29.795Z,0.50
2023-05-21T10:08:04.201Z,0.47
2023-05-21T10:10:32.724Z,0.50
2023-05-21T10:13:04.503Z,0.60
2023-05-21T10:15:44.189Z,0.65
2023-05-21T10:18:13.125Z,0.60
2023-05-21T10:20:40.448Z,0.60
2023-05-21T10:23:08.188Z,0.88
2023-05-21T10:25:36.335Z,0.50
2023-05-21T10:28:03.463Z,0.68
2023-05-21T10:30:31.052Z,0.47
2023-05-21T10:32:59.829Z,0.70
2023-05-21T10:35:28.619Z,0.60
2023-05-21T10:37:57.472Z,0.60
2023-05-21T10:40:24.327Z,0.52
2023-05-21T10:43:09.983Z,0.60
2023-05-21T10:46:06.846Z,0.50
2023-05-21T10:48:50.923Z,0.50
2023-05-21T10:51:25.793Z,0.52
2023-05-21T10:54:07.685Z,0.70
2023-05-21T10:56:49.026Z,0.77
2023-05-21T10:59:28.644Z,0.50
2023-05-21T11:01:56.963Z,0.75
2023-05-21T11:04:27.037Z,0.65
2023-05-21T11:06:54.185Z,0.60
2023-05-21T11:09:21.199Z,0.60
2023-05-21T11:11:58.764Z,0.80
2023-05-21T11:14:43.148Z,0.60
2023-05-21T11:17:09.960Z,0.50
2023-05-21T11:19:45.279Z,0.80
2023-05-21T11:22:24.005Z,1.00
2023-05-21T11:24:52.187Z,0.70
2023-05-21T11:27:33.740Z,0.55
2023-05-21T11:30:03.303Z,0.60
2023-05-21T11:32:31.670Z,0.60
2023-05-21T11:35:04.139Z,0.50
2023-05-21T11:37:33.268Z,0.65
2023-05-21T11:40:20.509Z,0.80
2023-05-21T11:42:52.805Z,0.82
2023-05-21T11:45:21.726Z,0.80
2023-05-21T11:47:49.651Z,0.73
2023-05-21T11:50:19.899Z,0.80
2023-05-21T11:52:46.938Z,1.63
2023-05-21T11:55:15.740Z,1.70
2023-05-21T11:57:44.883Z,1.58
2023-05-21T12:00:16.755Z,1.50
2023-05-21T12:02:51.882Z,1.25
2023-05-21T12:05:19.032Z,1.40
2023-05-21T12:07:50.412Z,0.93
2023-05-21T12:10:21.276Z,1.02
2023-05-21T12:12:55.529Z,0.80
2023-05-21T12:15:25.222Z,1.00
2023-05-21T12:17:53.375Z,0.80
2023-05-21T12:20:20.916Z,0.70
2023-05-21T12:22:49.385Z,0.95
2023-05-21T12:25:21.318Z,0.90
2023-05-21T12:27:52.652Z,0.60
2023-05-21T12:30:20.708Z,0.60
2023-05-21T12:32:52.161Z,0.60
2023-05-21T12:35:25.596Z,0.80
2023-05-21T12:37:52.639Z,0.70
2023-05-21T12:40:20.321Z,1.20
2023-05-21T12:42:47.434Z,1.13
2023-05-21T12:45:14.722Z,0.85
2023-05-21T12:47:41.759Z,1.05
2023-05-21T12:50:11.956Z,1.50
2023-05-21T12:52:43.029Z,0.80
2023-05-21T12:55:13.082Z,1.00
2023-05-21T12:57:39.981Z,0.85
2023-05-21T13:00:08.012Z,0.95
2023-05-21T13:02:43.004Z,0.93
2023-05-21T13:05:17.558Z,1.10
2023-05-21T13:07:46.854Z,0.93
2023-05-21T13:10:16.816Z,0.93
2023-05-21T13:12:45.131Z,1.05
2023-05-21T13:15:12.194Z,0.60
2023-05-21T13:17:39.340Z,0.90
2023-05-21T13:20:21.800Z,0.80
2023-05-21T13:22:51.592Z,0.80
2023-05-21T13:25:24.771Z,0.80
2023-05-21T13:27:53.067Z,0.77
2023-05-21T13:30:20.938Z,1.08
2023-05-21T13:32:48.707Z,1.10
2023-05-21T13:35:16.784Z,1.10
2023-05-21T13:37:46.640Z,1.03
2023-05-21T13:40:15.315Z,1.70
2023-05-21T13:42:47.666Z,1.40
2023-05-21T13:45:17.394Z,1.40
2023-05-21T13:47:45.595Z,1.85
2023-05-21T13:50:14.525Z,1.30
2023-05-21T13:52:41.684Z,1.00
2023-05-21T13:55:09.815Z,1.07
2023-05-21T13:57:36.708Z,0.80
2023-05-21T14:00:04.832Z,0.98
2023-05-21T14:02:31.791Z,0.85
2023-05-21T14:04:58.912Z,0.90
2023-05-21T14:07:26.650Z,1.20
2023-05-21T14:09:53.509Z,1.30
2023-05-21T14:12:20.810Z,1.43
2023-05-21T14:14:49.908Z,1.55
2023-05-21T14:17:17.263Z,1.38
2023-05-21T14:19:44.182Z,1.65
2023-05-21T14:22:11.317Z,2.00
2023-05-21T14:24:38.175Z,1.52
2023-05-21T14:27:05.143Z,1.85
2023-05-21T14:29:33.260Z,1.88
2023-05-21T14:32:00.160Z,2.30
2023-05-21T14:34:27.064Z,2.60
2023-05-21T14:36:54.018Z,2.42
2023-05-21T14:39:20.832Z,2.23
2023-05-21T14:41:47.643Z,2.10
2023-05-21T14:44:14.553Z,2.17
2023-05-21T14:46:41.850Z,2.30
2023-05-21T14:49:08.861Z,2.03
2023-05-21T14:51:35.838Z,2.60
2023-05-21T14:54:02.769Z,2.72
2023-05-21T14:56:29.596Z,2.20
2023-05-21T14:58:56.541Z,2.92
2023-05-21T15:01:23.884Z,1.75
2023-05-21T15:03:51.295Z,1.80
2023-05-21T15:06:18.425Z,1.20
2023-05-21T15:08:45.397Z,1.20
2023-05-21T15:11:12.263Z,1.40
2023-05-21T15:13:39.701Z,1.60
2023-05-21T15:16:06.867Z,1.40
2023-05-21T15:18:36.371Z,1.50
2023-05-21T15:21:03.312Z,1.85
2023-05-21T15:23:30.223Z,1.90
2023-05-21T15:25:57.058Z,1.98
2023-05-21T15:28:24.022Z,1.83
2023-05-21T15:30:50.973Z,1.90
2023-05-21T15:33:17.905Z,1.80
2023-05-21T15:35:45.044Z,1.98
2023-05-21T15:38:12.285Z,1.95
2023-05-21T15:40:41.435Z,2.25
2023-05-21T15:43:08.468Z,2.70
2023-05-21T15:45:35.531Z,2.35
2023-05-21T15:48:02.598Z,2.40
2023-05-21T15:50:29.647Z,6.93
2023-05-21T15:52:56.719Z,4.53
2023-05-21T15:55:23.802Z,2.17
2023-05-21T15:57:50.778Z,1.73
2023-05-21T16:00:17.793Z,2.17
2023-05-21T16:02:44.800Z,1.70
2023-05-21T16:05:11.742Z,1.92
2023-05-21T16:07:38.646Z,1.98
2023-05-21T16:10:06.657Z,1.75
2023-05-21T16:12:33.616Z,1.30
2023-05-21T16:15:00.721Z,1.50
2023-05-21T16:17:27.716Z,1.52
2023-05-21T16:19:54.786Z,1.67
2023-05-21T16:22:23.224Z,1.70
2023-05-21T16:24:50.523Z,1.58
2023-05-21T16:27:17.520Z,1.40
2023-05-21T16:29:45.115Z,1.48
2023-05-21T16:32:13.832Z,1.50
2023-05-21T16:34:41.187Z,1.38
2023-05-21T16:37:13.303Z,1.65
2023-05-21T16:39:40.137Z,1.95
2023-05-21T16:42:07.061Z,1.40
2023-05-21T16:44:33.896Z,1.60
2023-05-21T16:47:01.991Z,1.85
2023-05-21T16:49:28.934Z,1.70
2023-05-21T16:51:55.986Z,1.77
2023-05-21T16:54:22.830Z,1.40
2023-05-21T16:56:49.807Z,1.48
2023-05-21T16:59:16.755Z,1.45
2023-05-21T17:01:43.882Z,1.75
2023-05-21T17:04:11.138Z,1.55
2023-05-21T17:06:37.992Z,1.55
2023-05-21T17:09:07.011Z,1.58
2023-05-21T17:11:35.060Z,1.63
2023-05-21T17:14:01.960Z,1.60
2023-05-21T17:16:28.904Z,1.65
2023-05-21T17:18:55.874Z,1.65
2023-05-21T17:21:22.836Z,1.42
2023-05-21T17:23:49.773Z,1.80
2023-05-21T17:26:16.671Z,1.45
2023-05-21T17:28:43.822Z,1.75
2023-05-21T17:31:10.952Z,1.70
2023-05-21T17:33:38.020Z,1.33
2023-05-21T17:36:05.205Z,1.73
2023-05-21T17:38:32.040Z,1.40
2023-05-21T17:40:59.479Z,1.80
2023-05-21T17:43:27.698Z,1.40
2023-05-21T17:45:54.715Z,1.50
2023-05-21T17:48:24.300Z,1.42
2023-05-21T17:50:51.114Z,1.60
2023-05-21T17:53:18.560Z,1.35
2023-05-21T17:55:45.512Z,1.40
2023-05-21T17:58:12.396Z,1.40
2023-05-21T18:00:39.355Z,1.63
2023-05-21T18:03:06.369Z,1.53
2023-05-21T18:05:33.441Z,1.83
2023-05-21T18:08:01.467Z,1.73
2023-05-21T18:10:28.611Z,1.70
2023-05-21T18:12:55.468Z,1.42
2023-05-21T18:15:22.413Z,1.30
2023-05-21T18:17:49.381Z,1.30
2023-05-21T18:20:16.359Z,1.40
2023-05-21T18:22:44.183Z,1.35
2023-05-21T18:25:11.461Z,1.23
2023-05-21T18:27:38.368Z,1.40
2023-05-21T18:30:06.485Z,1.52
2023-05-21T18:32:34.475Z,1.50
2023-05-21T18:35:01.449Z,1.63
2023-05-21T18:37:31.812Z,1.70
2023-05-21T18:39:58.734Z,1.85
2023-05-21T18:42:26.299Z,1.60
2023-05-21T18:44:53.133Z,1.88
2023-05-21T18:47:20.037Z,1.50
2023-05-21T18:49:46.870Z,1.67
2023-05-21T18:52:14.089Z,1.60
2023-05-21T18:54:40.994Z,1.80
2023-05-21T18:57:07.878Z,1.67
2023-05-21T18:59:34.714Z,1.40
2023-05-21T19:02:01.762Z,1.60
2023-05-21T19:04:28.840Z,1.52
2023-05-21T19:06:55.899Z,1.20
2023-05-21T19:09:24.100Z,1.50
2023-05-21T19:11:51.015Z,1.80
2023-05-21T19:14:17.872Z,2.03
2023-05-21T19:16:44.753Z,1.60
2023-05-21T19:19:11.718Z,1.38
2023-05-21T19:21:39.012Z,1.40
2023-05-21T19:24:06.575Z,1.60
2023-05-21T19:26:33.469Z,1.48
2023-05-21T19:29:00.448Z,1.52
2023-05-21T19:31:27.429Z,1.97
2023-05-21T19:33:54.326Z,1.73
2023-05-21T19:36:22.016Z,1.60
2023-05-21T19:38:50.216Z,1.60
2023-05-21T19:41:17.871Z,1.60
2023-05-21T19:43:47.562Z,1.92
2023-05-21T19:46:18.157Z,1.95
2023-05-21T19:48:47.204Z,1.90
2023-05-21T19:51:14.065Z,1.88
2023-05-21T19:53:40.957Z,1.90
2023-05-21T19:56:08.032Z,1.80
2023-05-21T19:58:34.941Z,2.00
2023-05-21T20:01:03.452Z,1.60
2023-05-21T20:03:35.821Z,2.20
2023-05-21T20:06:03.641Z,2.08
2023-05-21T20:08:30.759Z,1.92
2023-05-21T20:10:58.040Z,2.00
2023-05-21T20:13:25.087Z,1.77
2023-05-21T20:15:52.317Z,1.92
2023-05-21T20:18:22.121Z,2.55
2023-05-21T20:20:51.785Z,1.98
2023-05-21T20:23:18.738Z,2.40
2023-05-21T20:25:45.904Z,2.40
2023-05-21T20:28:12.873Z,2.13
2023-05-21T20:30:59.384Z,2.30
2023-05-21T20:33:31.417Z,1.80
2023-05-21T20:35:58.595Z,2.10
2023-05-21T20:38:28.401Z,2.25
2023-05-21T20:40:55.780Z,2.15
2023-05-21T20:43:24.397Z,2.35
2023-05-21T20:45:59.590Z,2.60
2023-05-21T20:48:31.897Z,2.15
2023-05-21T20:51:00.173Z,2.22
2023-05-21T20:53:27.252Z,2.28
2023-05-21T20:55:58.593Z,1.88
2023-05-21T20:58:25.733Z,1.80
2023-05-21T21:00:52.842Z,1.90
2023-05-21T21:03:21.622Z,2.40
2023-05-21T21:05:48.828Z,2.22
2023-05-21T21:08:16.237Z,2.50
2023-05-21T21:10:46.752Z,1.97
2023-05-21T21:13:14.676Z,2.75
2023-05-21T21:15:43.681Z,2.08
2023-05-21T21:18:12.411Z,2.50
2023-05-21T21:20:41.212Z,2.40
2023-05-21T21:23:08.584Z,2.38
2023-05-21T21:25:35.681Z,2.33
2023-05-21T21:28:02.613Z,2.27
2023-05-21T21:30:29.551Z,2.20
2023-05-21T21:32:56.467Z,2.30
2023-05-21T21:35:23.330Z,2.30
2023-05-21T21:37:50.159Z,2.20
2023-05-21T21:40:17.035Z,2.30
2023-05-21T21:42:43.892Z,2.57
2023-05-21T21:45:11.219Z,2.17
2023-05-21T21:47:38.191Z,2.33
2023-05-21T21:50:05.900Z,2.53
2023-05-21T21:52:32.768Z,2.13
2023-05-21T21:54:59.781Z,2.30
2023-05-21T21:57:29.419Z,2.50
2023-05-21T21:59:56.380Z,2.25
2023-05-21T22:02:23.453Z,2.00
2023-05-21T22:04:50.432Z,2.15
2023-05-21T22:07:18.205Z,2.60
2023-05-21T22:09:46.367Z,2.35
2023-05-21T22:12:13.520Z,2.60
2023-05-21T22:14:40.356Z,2.77
2023-05-21T22:17:08.600Z,2.03
2023-05-21T22:19:35.949Z,2.40
2023-05-21T22:22:04.159Z,2.13
2023-05-21T22:24:32.808Z,2.27
2023-05-21T22:27:00.602Z,2.10
2023-05-21T22:29:27.499Z,2.05
2023-05-21T22:31:54.371Z,2.00
2023-05-21T22:34:22.298Z,2.00
2023-05-21T22:36:49.186Z,2.20
2023-05-21T22:39:16.095Z,2.25
2023-05-21T22:41:43.107Z,2.00
2023-05-21T22:44:10.066Z,2.42
2023-05-21T22:46:36.962Z,2.30
2023-05-21T22:49:03.884Z,2.47
2023-05-21T22:51:34.574Z,2.60
2023-05-21T22:54:01.915Z,2.40
2023-05-21T22:56:28.982Z,2.47
2023-05-21T22:58:56.262Z,2.55
2023-05-21T23:01:23.537Z,2.33
2023-05-21T23:03:51.602Z,2.08
2023-05-21T23:06:18.658Z,2.22
2023-05-21T23:08:45.684Z,2.08
2023-05-21T23:11:12.609Z,2.45
2023-05-21T23:13:39.470Z,2.28
2023-05-21T23:16:07.150Z,2.58
2023-05-21T23:18:34.822Z,2.50
2023-05-21T23:21:01.986Z,2.40
2023-05-21T23:23:28.883Z,2.30
2023-05-21T23:25:57.611Z,2.42
2023-05-21T23:28:25.507Z,2.30
2023-05-21T23:30:52.728Z,2.63
2023-05-21T23:33:19.839Z,2.42
2023-05-21T23:35:46.703Z,2.40
2023-05-21T23:38:13.609Z,2.05
2023-05-21T23:40:40.645Z,2.40
2023-05-21T23:43:07.691Z,2.50
2023-05-21T23:45:34.742Z,2.75
2023-05-21T23:48:01.646Z,2.58
2023-05-21T23:50:28.632Z,2.28
2023-05-21T23:52:55.716Z,2.33
2023-05-21T23:55:22.585Z,2.30
2023-05-21T23:57:49.416Z,2.38
